sensor_id;sensor_type;location;lat;lon;timestamp;P1;durP1;ratioP1;P2;durP2;ratioP2
75295;SDS011;64623;44.738;37.804;2023-11-19T00:00:56;5.00;;;4.50;;
75295;SDS011;64623;44.738;37.804;2023-11-19T00:01:59;4.00;;;3.42;;
75295;SDS011;64623;44.738;37.804;2023-11-19T00:03:02;4.97;;;3.47;;
75295;SDS011;64623;44.738;37.804;2023-11-19T00:04:05;4.85;;;3.28;;
75295;SDS011;64623;44.738;37.804;2023-11-19T00:05:09;4.38;;;2.30;;
75295;SDS011;64623;44.738;37.804;2023-11-19T00:06:13;3.72;;;2.33;;
75295;SDS011;64623;44.738;37.804;2023-11-19T00:07:17;3.78;;;1.92;;
75295;SDS011;64623;44.738;37.804;2023-11-19T00:08:21;3.42;;;2.50;;
75295;SDS011;64623;44.738;37.804;2023-11-19T00:09:24;2.60;;;1.73;;
75295;SDS011;64623;44.738;37.804;2023-11-19T00:10:28;2.78;;;2.03;;
75295;SDS011;64623;44.738;37.804;2023-11-19T00:11:30;3.45;;;2.45;;
75295;SDS011;64623;44.738;37.804;2023-11-19T00:12:34;5.70;;;1.98;;
75295;SDS011;64623;44.738;37.804;2023-11-19T00:13:37;5.38;;;2.70;;
75295;SDS011;64623;44.738;37.804;2023-11-19T00:14:40;4.13;;;2.58;;
75295;SDS011;64623;44.738;37.804;2023-11-19T00:15:43;5.53;;;3.45;;
75295;SDS011;64623;44.738;37.804;2023-11-19T00:16:47;4.63;;;2.90;;
75295;SDS011;64623;44.738;37.804;2023-11-19T00:17:53;3.92;;;2.92;;
75295;SDS011;64623;44.738;37.804;2023-11-19T00:18:57;3.92;;;2.33;;
75295;SDS011;64623;44.738;37.804;2023-11-19T00:20:00;5.47;;;2.60;;
75295;SDS011;64623;44.738;37.804;2023-11-19T00:21:04;5.38;;;4.05;;
75295;SDS011;64623;44.738;37.804;2023-11-19T00:22:07;5.10;;;3.08;;
75295;SDS011;64623;44.738;37.804;2023-11-19T00:23:10;4.38;;;2.60;;
75295;SDS011;64623;44.738;37.804;2023-11-19T00:24:13;5.15;;;2.88;;
75295;SDS011;64623;44.738;37.804;2023-11-19T00:25:19;4.88;;;3.03;;
75295;SDS011;64623;44.738;37.804;2023-11-19T00:26:24;5.53;;;2.97;;
75295;SDS011;64623;44.738;37.804;2023-11-19T00:27:27;4.78;;;3.38;;
75295;SDS011;64623;44.738;37.804;2023-11-19T00:28:30;4.35;;;2.70;;
75295;SDS011;64623;44.738;37.804;2023-11-19T00:29:34;2.65;;;1.95;;
75295;SDS011;64623;44.738;37.804;2023-11-19T00:30:37;4.20;;;1.55;;
75295;SDS011;64623;44.738;37.804;2023-11-19T00:31:40;4.55;;;3.05;;
75295;SDS011;64623;44.738;37.804;2023-11-19T00:32:43;2.88;;;1.90;;
75295;SDS011;64623;44.738;37.804;2023-11-19T00:33:46;3.10;;;2.30;;
75295;SDS011;64623;44.738;37.804;2023-11-19T00:34:51;3.25;;;2.00;;
75295;SDS011;64623;44.738;37.804;2023-11-19T00:35:54;2.78;;;1.88;;
75295;SDS011;64623;44.738;37.804;2023-11-19T00:36:58;3.92;;;2.05;;
75295;SDS011;64623;44.738;37.804;2023-11-19T00:38:01;5.20;;;2.75;;
75295;SDS011;64623;44.738;37.804;2023-11-19T00:39:05;4.70;;;2.45;;
75295;SDS011;64623;44.738;37.804;2023-11-19T00:40:08;3.47;;;2.47;;
75295;SDS011;64623;44.738;37.804;2023-11-19T00:41:13;3.95;;;1.80;;
75295;SDS011;64623;44.738;37.804;2023-11-19T00:42:19;5.25;;;2.45;;
75295;SDS011;64623;44.738;37.804;2023-11-19T00:43:22;4.10;;;2.28;;
75295;SDS011;64623;44.738;37.804;2023-11-19T00:44:26;3.60;;;2.25;;
75295;SDS011;64623;44.738;37.804;2023-11-19T00:45:29;4.55;;;2.42;;
75295;SDS011;64623;44.738;37.804;2023-11-19T00:46:32;4.20;;;2.40;;
75295;SDS011;64623;44.738;37.804;2023-11-19T00:47:35;5.07;;;3.55;;
75295;SDS011;64623;44.738;37.804;2023-11-19T00:48:39;3.13;;;2.08;;
75295;SDS011;64623;44.738;37.804;2023-11-19T00:49:42;4.82;;;3.55;;
75295;SDS011;64623;44.738;37.804;2023-11-19T00:50:45;4.53;;;2.83;;
75295;SDS011;64623;44.738;37.804;2023-11-19T00:51:48;3.78;;;2.33;;
75295;SDS011;64623;44.738;37.804;2023-11-19T00:52:51;6.35;;;2.97;;
75295;SDS011;64623;44.738;37.804;2023-11-19T00:53:54;5.43;;;3.05;;
75295;SDS011;64623;44.738;37.804;2023-11-19T00:54:58;4.47;;;2.90;;
75295;SDS011;64623;44.738;37.804;2023-11-19T00:56:02;5.28;;;3.67;;
75295;SDS011;64623;44.738;37.804;2023-11-19T00:57:05;5.45;;;3.42;;
75295;SDS011;64623;44.738;37.804;2023-11-19T00:58:09;5.43;;;3.40;;
75295;SDS011;64623;44.738;37.804;2023-11-19T00:59:12;5.15;;;3.30;;
75295;SDS011;64623;44.738;37.804;2023-11-19T01:00:16;5.57;;;3.30;;
75295;SDS011;64623;44.738;37.804;2023-11-19T01:01:23;6.10;;;3.20;;
75295;SDS011;64623;44.738;37.804;2023-11-19T01:02:27;5.80;;;3.33;;
75295;SDS011;64623;44.738;37.804;2023-11-19T01:03:31;6.30;;;3.30;;
75295;SDS011;64623;44.738;37.804;2023-11-19T01:04:35;4.30;;;2.45;;
75295;SDS011;64623;44.738;37.804;2023-11-19T01:05:39;4.85;;;3.60;;
75295;SDS011;64623;44.738;37.804;2023-11-19T01:06:42;5.13;;;2.92;;
75295;SDS011;64623;44.738;37.804;2023-11-19T01:07:48;5.25;;;2.42;;
75295;SDS011;64623;44.738;37.804;2023-11-19T01:08:51;5.88;;;4.45;;
75295;SDS011;64623;44.738;37.804;2023-11-19T01:09:55;5.03;;;4.50;;
75295;SDS011;64623;44.738;37.804;2023-11-19T01:10:59;6.18;;;2.83;;
75295;SDS011;64623;44.738;37.804;2023-11-19T01:12:02;7.15;;;2.90;;
75295;SDS011;64623;44.738;37.804;2023-11-19T01:13:05;5.43;;;3.20;;
75295;SDS011;64623;44.738;37.804;2023-11-19T01:14:08;5.57;;;3.05;;
75295;SDS011;64623;44.738;37.804;2023-11-19T01:15:12;2.65;;;1.60;;
75295;SDS011;64623;44.738;37.804;2023-11-19T01:16:15;4.55;;;1.75;;
75295;SDS011;64623;44.738;37.804;2023-11-19T01:17:19;2.42;;;1.27;;
75295;SDS011;64623;44.738;37.804;2023-11-19T01:18:22;2.47;;;1.55;;
75295;SDS011;64623;44.738;37.804;2023-11-19T01:19:25;5.75;;;1.80;;
75295;SDS011;64623;44.738;37.804;2023-11-19T01:20:28;4.03;;;2.22;;
75295;SDS011;64623;44.738;37.804;2023-11-19T01:21:31;3.78;;;2.47;;
75295;SDS011;64623;44.738;37.804;2023-11-19T01:22:34;4.50;;;3.45;;
75295;SDS011;64623;44.738;37.804;2023-11-19T01:23:37;4.20;;;3.30;;
75295;SDS011;64623;44.738;37.804;2023-11-19T01:24:40;4.45;;;2.55;;
75295;SDS011;64623;44.738;37.804;2023-11-19T01:25:43;5.43;;;2.70;;
75295;SDS011;64623;44.738;37.804;2023-11-19T01:26:46;4.38;;;2.30;;
75295;SDS011;64623;44.738;37.804;2023-11-19T01:27:49;4.10;;;2.55;;
75295;SDS011;64623;44.738;37.804;2023-11-19T01:28:52;5.70;;;3.13;;
75295;SDS011;64623;44.738;37.804;2023-11-19T01:29:56;5.68;;;3.40;;
75295;SDS011;64623;44.738;37.804;2023-11-19T01:30:59;4.30;;;2.85;;
75295;SDS011;64623;44.738;37.804;2023-11-19T01:32:02;6.00;;;3.42;;
75295;SDS011;64623;44.738;37.804;2023-11-19T01:33:05;5.18;;;3.50;;
75295;SDS011;64623;44.738;37.804;2023-11-19T01:34:10;5.60;;;3.58;;
75295;SDS011;64623;44.738;37.804;2023-11-19T01:35:14;4.28;;;3.33;;
75295;SDS011;64623;44.738;37.804;2023-11-19T01:36:17;5.57;;;2.83;;
75295;SDS011;64623;44.738;37.804;2023-11-19T01:37:20;7.53;;;3.30;;
75295;SDS011;64623;44.738;37.804;2023-11-19T01:38:23;4.88;;;3.35;;
75295;SDS011;64623;44.738;37.804;2023-11-19T01:39:26;6.22;;;3.22;;
75295;SDS011;64623;44.738;37.804;2023-11-19T01:40:29;5.80;;;3.28;;
75295;SDS011;64623;44.738;37.804;2023-11-19T01:41:35;5.50;;;3.20;;
75295;SDS011;64623;44.738;37.804;2023-11-19T01:42:39;6.10;;;3.78;;
75295;SDS011;64623;44.738;37.804;2023-11-19T01:43:43;7.65;;;4.40;;
75295;SDS011;64623;44.738;37.804;2023-11-19T01:44:58;7.45;;;3.40;;
75295;SDS011;64623;44.738;37.804;2023-11-19T01:46:04;6.90;;;4.05;;
75295;SDS011;64623;44.738;37.804;2023-11-19T01:47:08;7.20;;;4.75;;
75295;SDS011;64623;44.738;37.804;2023-11-19T01:48:11;5.53;;;3.50;;
75295;SDS011;64623;44.738;37.804;2023-11-19T01:49:15;6.25;;;4.50;;
75295;SDS011;64623;44.738;37.804;2023-11-19T01:50:20;6.75;;;4.13;;
75295;SDS011;64623;44.738;37.804;2023-11-19T01:51:24;8.63;;;4.40;;
75295;SDS011;64623;44.738;37.804;2023-11-19T01:52:27;6.13;;;4.07;;
75295;SDS011;64623;44.738;37.804;2023-11-19T01:53:31;7.15;;;4.38;;
75295;SDS011;64623;44.738;37.804;2023-11-19T01:54:35;7.60;;;4.90;;
75295;SDS011;64623;44.738;37.804;2023-11-19T01:55:38;5.85;;;4.45;;
75295;SDS011;64623;44.738;37.804;2023-11-19T01:56:41;6.78;;;4.57;;
75295;SDS011;64623;44.738;37.804;2023-11-19T01:57:45;8.05;;;5.30;;
75295;SDS011;64623;44.738;37.804;2023-11-19T01:58:49;6.20;;;3.85;;
75295;SDS011;64623;44.738;37.804;2023-11-19T01:59:52;6.82;;;4.15;;
75295;SDS011;64623;44.738;37.804;2023-11-19T02:00:56;6.90;;;3.80;;
75295;SDS011;64623;44.738;37.804;2023-11-19T02:01:59;6.30;;;4.32;;
75295;SDS011;64623;44.738;37.804;2023-11-19T02:03:03;7.38;;;4.47;;
75295;SDS011;64623;44.738;37.804;2023-11-19T02:04:09;7.93;;;4.65;;
75295;SDS011;64623;44.738;37.804;2023-11-19T02:05:13;6.95;;;4.57;;
75295;SDS011;64623;44.738;37.804;2023-11-19T02:06:16;6.60;;;4.22;;
75295;SDS011;64623;44.738;37.804;2023-11-19T02:07:19;7.60;;;4.10;;
75295;SDS011;64623;44.738;37.804;2023-11-19T02:08:23;6.85;;;4.10;;
75295;SDS011;64623;44.738;37.804;2023-11-19T02:09:25;8.35;;;4.28;;
75295;SDS011;64623;44.738;37.804;2023-11-19T02:10:29;9.05;;;4.45;;
75295;SDS011;64623;44.738;37.804;2023-11-19T02:11:34;6.57;;;4.35;;
75295;SDS011;64623;44.738;37.804;2023-11-19T02:12:42;6.50;;;4.43;;
75295;SDS011;64623;44.738;37.804;2023-11-19T02:13:45;5.55;;;3.53;;
75295;SDS011;64623;44.738;37.804;2023-11-19T02:14:48;7.63;;;4.43;;
75295;SDS011;64623;44.738;37.804;2023-11-19T02:15:51;8.63;;;4.25;;
75295;SDS011;64623;44.738;37.804;2023-11-19T02:16:54;6.10;;;4.10;;
75295;SDS011;64623;44.738;37.804;2023-11-19T02:17:56;6.15;;;4.10;;
75295;SDS011;64623;44.738;37.804;2023-11-19T02:18:59;6.45;;;4.60;;
75295;SDS011;64623;44.738;37.804;2023-11-19T02:20:22;5.47;;;3.97;;
75295;SDS011;64623;44.738;37.804;2023-11-19T02:21:26;6.03;;;4.45;;
75295;SDS011;64623;44.738;37.804;2023-11-19T02:22:29;6.68;;;4.40;;
75295;SDS011;64623;44.738;37.804;2023-11-19T02:23:32;8.18;;;5.82;;
75295;SDS011;64623;44.738;37.804;2023-11-19T02:24:35;5.88;;;3.97;;
75295;SDS011;64623;44.738;37.804;2023-11-19T02:25:38;8.23;;;4.05;;
75295;SDS011;64623;44.738;37.804;2023-11-19T02:26:47;5.75;;;3.75;;
75295;SDS011;64623;44.738;37.804;2023-11-19T02:28:04;6.15;;;4.45;;
75295;SDS011;64623;44.738;37.804;2023-11-19T02:29:07;7.03;;;4.53;;
75295;SDS011;64623;44.738;37.804;2023-11-19T02:30:11;7.57;;;4.50;;
75295;SDS011;64623;44.738;37.804;2023-11-19T02:31:16;6.65;;;4.45;;
75295;SDS011;64623;44.738;37.804;2023-11-19T02:32:21;6.80;;;3.88;;
75295;SDS011;64623;44.738;37.804;2023-11-19T02:33:24;6.65;;;5.05;;
75295;SDS011;64623;44.738;37.804;2023-11-19T02:34:27;7.97;;;4.57;;
75295;SDS011;64623;44.738;37.804;2023-11-19T02:35:29;6.40;;;4.22;;
75295;SDS011;64623;44.738;37.804;2023-11-19T02:36:33;7.07;;;4.32;;
75295;SDS011;64623;44.738;37.804;2023-11-19T02:37:38;6.82;;;4.80;;
75295;SDS011;64623;44.738;37.804;2023-11-19T02:38:41;8.13;;;4.55;;
75295;SDS011;64623;44.738;37.804;2023-11-19T02:39:43;5.72;;;3.85;;
75295;SDS011;64623;44.738;37.804;2023-11-19T02:40:46;7.47;;;4.95;;
75295;SDS011;64623;44.738;37.804;2023-11-19T02:41:49;8.90;;;4.93;;
75295;SDS011;64623;44.738;37.804;2023-11-19T02:42:55;6.00;;;4.05;;
75295;SDS011;64623;44.738;37.804;2023-11-19T02:43:58;6.63;;;4.40;;
75295;SDS011;64623;44.738;37.804;2023-11-19T02:45:01;8.35;;;4.78;;
75295;SDS011;64623;44.738;37.804;2023-11-19T02:46:05;7.15;;;4.50;;
75295;SDS011;64623;44.738;37.804;2023-11-19T02:47:13;7.32;;;5.68;;
75295;SDS011;64623;44.738;37.804;2023-11-19T02:48:16;5.78;;;3.85;;
75295;SDS011;64623;44.738;37.804;2023-11-19T02:49:19;5.20;;;3.72;;
75295;SDS011;64623;44.738;37.804;2023-11-19T02:50:23;7.15;;;4.78;;
75295;SDS011;64623;44.738;37.804;2023-11-19T02:51:27;7.05;;;4.68;;
75295;SDS011;64623;44.738;37.804;2023-11-19T02:52:30;6.00;;;4.25;;
75295;SDS011;64623;44.738;37.804;2023-11-19T02:53:37;7.35;;;4.55;;
75295;SDS011;64623;44.738;37.804;2023-11-19T02:54:42;7.28;;;4.00;;
75295;SDS011;64623;44.738;37.804;2023-11-19T02:55:45;6.78;;;4.78;;
75295;SDS011;64623;44.738;37.804;2023-11-19T02:56:52;6.03;;;4.75;;
75295;SDS011;64623;44.738;37.804;2023-11-19T02:57:57;6.82;;;4.10;;
75295;SDS011;64623;44.738;37.804;2023-11-19T02:59:01;6.72;;;4.38;;
75295;SDS011;64623;44.738;37.804;2023-11-19T03:00:17;6.60;;;4.78;;
75295;SDS011;64623;44.738;37.804;2023-11-19T03:01:25;6.82;;;4.20;;
75295;SDS011;64623;44.738;37.804;2023-11-19T03:02:32;6.90;;;4.63;;
75295;SDS011;64623;44.738;37.804;2023-11-19T03:03:46;8.27;;;5.38;;
75295;SDS011;64623;44.738;37.804;2023-11-19T03:04:56;7.22;;;4.45;;
75295;SDS011;64623;44.738;37.804;2023-11-19T03:05:58;7.55;;;5.20;;
75295;SDS011;64623;44.738;37.804;2023-11-19T03:07:01;6.97;;;4.90;;
75295;SDS011;64623;44.738;37.804;2023-11-19T03:08:04;6.50;;;4.40;;
75295;SDS011;64623;44.738;37.804;2023-11-19T03:09:07;7.90;;;5.15;;
75295;SDS011;64623;44.738;37.804;2023-11-19T03:10:12;7.10;;;4.78;;
75295;SDS011;64623;44.738;37.804;2023-11-19T03:11:19;7.55;;;4.90;;
75295;SDS011;64623;44.738;37.804;2023-11-19T03:12:22;6.32;;;4.93;;
75295;SDS011;64623;44.738;37.804;2023-11-19T03:13:25;7.47;;;5.88;;
75295;SDS011;64623;44.738;37.804;2023-11-19T03:14:29;6.90;;;4.82;;
75295;SDS011;64623;44.738;37.804;2023-11-19T03:15:31;6.75;;;4.82;;
75295;SDS011;64623;44.738;37.804;2023-11-19T03:16:34;8.38;;;5.53;;
75295;SDS011;64623;44.738;37.804;2023-11-19T03:17:40;7.35;;;4.75;;
75295;SDS011;64623;44.738;37.804;2023-11-19T03:18:44;7.00;;;5.30;;
75295;SDS011;64623;44.738;37.804;2023-11-19T03:19:47;6.57;;;4.70;;
75295;SDS011;64623;44.738;37.804;2023-11-19T03:20:50;9.23;;;5.45;;
75295;SDS011;64623;44.738;37.804;2023-11-19T03:21:54;7.80;;;4.65;;
75295;SDS011;64623;44.738;37.804;2023-11-19T03:22:57;7.35;;;4.40;;
75295;SDS011;64623;44.738;37.804;2023-11-19T03:24:00;7.80;;;5.18;;
75295;SDS011;64623;44.738;37.804;2023-11-19T03:25:03;9.00;;;5.38;;
75295;SDS011;64623;44.738;37.804;2023-11-19T03:26:06;7.75;;;5.53;;
75295;SDS011;64623;44.738;37.804;2023-11-19T03:27:10;7.85;;;5.10;;
75295;SDS011;64623;44.738;37.804;2023-11-19T03:28:13;7.93;;;5.05;;
75295;SDS011;64623;44.738;37.804;2023-11-19T03:29:16;7.97;;;5.35;;
75295;SDS011;64623;44.738;37.804;2023-11-19T03:30:19;8.25;;;5.13;;
75295;SDS011;64623;44.738;37.804;2023-11-19T03:31:34;7.45;;;5.72;;
75295;SDS011;64623;44.738;37.804;2023-11-19T03:32:37;8.25;;;5.60;;
75295;SDS011;64623;44.738;37.804;2023-11-19T03:33:41;10.25;;;5.57;;
75295;SDS011;64623;44.738;37.804;2023-11-19T03:34:44;7.95;;;5.38;;
75295;SDS011;64623;44.738;37.804;2023-11-19T03:35:47;8.27;;;5.05;;
75295;SDS011;64623;44.738;37.804;2023-11-19T03:36:50;8.13;;;5.03;;
75295;SDS011;64623;44.738;37.804;2023-11-19T03:37:52;8.70;;;5.53;;
75295;SDS011;64623;44.738;37.804;2023-11-19T03:38:55;7.38;;;5.10;;
75295;SDS011;64623;44.738;37.804;2023-11-19T03:39:58;8.95;;;5.20;;
75295;SDS011;64623;44.738;37.804;2023-11-19T03:41:10;7.22;;;5.10;;
75295;SDS011;64623;44.738;37.804;2023-11-19T03:42:16;8.25;;;5.70;;
75295;SDS011;64623;44.738;37.804;2023-11-19T03:43:19;9.90;;;6.07;;
75295;SDS011;64623;44.738;37.804;2023-11-19T03:44:22;7.90;;;5.28;;
75295;SDS011;64623;44.738;37.804;2023-11-19T03:45:24;8.13;;;5.53;;
75295;SDS011;64623;44.738;37.804;2023-11-19T03:46:27;8.13;;;4.53;;
75295;SDS011;64623;44.738;37.804;2023-11-19T03:47:32;7.75;;;5.25;;
75295;SDS011;64623;44.738;37.804;2023-11-19T03:48:35;9.68;;;5.32;;
75295;SDS011;64623;44.738;37.804;2023-11-19T03:49:37;6.95;;;5.20;;
75295;SDS011;64623;44.738;37.804;2023-11-19T03:50:40;8.57;;;5.45;;
75295;SDS011;64623;44.738;37.804;2023-11-19T03:51:43;8.05;;;4.57;;
75295;SDS011;64623;44.738;37.804;2023-11-19T03:52:46;7.68;;;5.18;;
75295;SDS011;64623;44.738;37.804;2023-11-19T03:53:49;8.32;;;4.45;;
75295;SDS011;64623;44.738;37.804;2023-11-19T03:54:52;6.40;;;4.28;;
75295;SDS011;64623;44.738;37.804;2023-11-19T03:55:57;10.23;;;6.22;;
75295;SDS011;64623;44.738;37.804;2023-11-19T03:57:00;7.47;;;5.22;;
75295;SDS011;64623;44.738;37.804;2023-11-19T03:58:05;9.00;;;5.75;;
75295;SDS011;64623;44.738;37.804;2023-11-19T03:59:08;9.13;;;5.85;;
75295;SDS011;64623;44.738;37.804;2023-11-19T04:00:12;8.38;;;5.43;;
75295;SDS011;64623;44.738;37.804;2023-11-19T04:01:16;7.15;;;5.25;;
75295;SDS011;64623;44.738;37.804;2023-11-19T04:02:20;9.75;;;6.65;;
75295;SDS011;64623;44.738;37.804;2023-11-19T04:03:23;8.15;;;5.35;;
75295;SDS011;64623;44.738;37.804;2023-11-19T04:04:26;7.97;;;5.70;;
75295;SDS011;64623;44.738;37.804;2023-11-19T04:05:29;8.68;;;5.93;;
75295;SDS011;64623;44.738;37.804;2023-11-19T04:06:32;8.77;;;5.45;;
75295;SDS011;64623;44.738;37.804;2023-11-19T04:07:35;6.53;;;4.75;;
75295;SDS011;64623;44.738;37.804;2023-11-19T04:08:38;6.93;;;5.30;;
75295;SDS011;64623;44.738;37.804;2023-11-19T04:09:41;7.85;;;5.20;;
75295;SDS011;64623;44.738;37.804;2023-11-19T04:10:44;7.57;;;5.00;;
75295;SDS011;64623;44.738;37.804;2023-11-19T04:11:47;7.00;;;5.40;;
75295;SDS011;64623;44.738;37.804;2023-11-19T04:12:50;6.15;;;4.60;;
75295;SDS011;64623;44.738;37.804;2023-11-19T04:13:53;5.97;;;3.92;;
75295;SDS011;64623;44.738;37.804;2023-11-19T04:14:56;7.93;;;4.70;;
75295;SDS011;64623;44.738;37.804;2023-11-19T04:16:02;6.68;;;3.83;;
75295;SDS011;64623;44.738;37.804;2023-11-19T04:17:05;6.97;;;4.65;;
75295;SDS011;64623;44.738;37.804;2023-11-19T04:18:08;5.93;;;3.50;;
75295;SDS011;64623;44.738;37.804;2023-11-19T04:19:11;5.75;;;4.07;;
75295;SDS011;64623;44.738;37.804;2023-11-19T04:20:14;6.15;;;4.60;;
75295;SDS011;64623;44.738;37.804;2023-11-19T04:21:17;6.80;;;4.40;;
75295;SDS011;64623;44.738;37.804;2023-11-19T04:22:20;6.13;;;3.72;;
75295;SDS011;64623;44.738;37.804;2023-11-19T04:23:23;6.40;;;4.43;;
75295;SDS011;64623;44.738;37.804;2023-11-19T04:24:27;5.85;;;3.90;;
75295;SDS011;64623;44.738;37.804;2023-11-19T04:25:30;6.38;;;4.15;;
75295;SDS011;64623;44.738;37.804;2023-11-19T04:26:33;7.85;;;4.57;;
75295;SDS011;64623;44.738;37.804;2023-11-19T04:27:36;5.75;;;3.72;;
75295;SDS011;64623;44.738;37.804;2023-11-19T04:28:39;6.78;;;4.25;;
75295;SDS011;64623;44.738;37.804;2023-11-19T04:29:42;7.25;;;5.10;;
75295;SDS011;64623;44.738;37.804;2023-11-19T04:30:44;6.28;;;4.18;;
75295;SDS011;64623;44.738;37.804;2023-11-19T04:31:47;5.95;;;3.83;;
75295;SDS011;64623;44.738;37.804;2023-11-19T04:32:50;8.07;;;4.57;;
75295;SDS011;64623;44.738;37.804;2023-11-19T04:33:53;6.00;;;3.72;;
75295;SDS011;64623;44.738;37.804;2023-11-19T04:34:57;6.30;;;4.47;;
75295;SDS011;64623;44.738;37.804;2023-11-19T04:35:59;6.38;;;3.67;;
75295;SDS011;64623;44.738;37.804;2023-11-19T04:37:03;5.43;;;3.42;;
75295;SDS011;64623;44.738;37.804;2023-11-19T04:38:09;6.35;;;3.10;;
75295;SDS011;64623;44.738;37.804;2023-11-19T04:39:12;6.50;;;5.00;;
75295;SDS011;64623;44.738;37.804;2023-11-19T04:40:17;6.43;;;3.65;;
75295;SDS011;64623;44.738;37.804;2023-11-19T04:41:20;6.70;;;4.35;;
75295;SDS011;64623;44.738;37.804;2023-11-19T04:42:23;5.88;;;3.95;;
75295;SDS011;64623;44.738;37.804;2023-11-19T04:43:26;7.45;;;4.35;;
75295;SDS011;64623;44.738;37.804;2023-11-19T04:44:29;5.38;;;3.45;;
75295;SDS011;64623;44.738;37.804;2023-11-19T04:45:32;6.25;;;3.63;;
75295;SDS011;64623;44.738;37.804;2023-11-19T04:46:36;5.30;;;3.22;;
75295;SDS011;64623;44.738;37.804;2023-11-19T04:47:39;6.88;;;5.07;;
75295;SDS011;64623;44.738;37.804;2023-11-19T04:48:41;5.97;;;3.65;;
75295;SDS011;64623;44.738;37.804;2023-11-19T04:49:44;6.35;;;4.10;;
75295;SDS011;64623;44.738;37.804;2023-11-19T04:50:47;5.82;;;4.28;;
75295;SDS011;64623;44.738;37.804;2023-11-19T04:51:50;6.43;;;4.75;;
75295;SDS011;64623;44.738;37.804;2023-11-19T04:52:53;6.47;;;4.07;;
75295;SDS011;64623;44.738;37.804;2023-11-19T04:53:56;7.13;;;5.07;;
75295;SDS011;64623;44.738;37.804;2023-11-19T04:54:59;5.22;;;3.72;;
75295;SDS011;64623;44.738;37.804;2023-11-19T04:56:11;6.63;;;3.95;;
75295;SDS011;64623;44.738;37.804;2023-11-19T04:57:15;6.28;;;4.60;;
75295;SDS011;64623;44.738;37.804;2023-11-19T04:58:18;5.45;;;3.85;;
75295;SDS011;64623;44.738;37.804;2023-11-19T04:59:21;6.07;;;4.30;;
75295;SDS011;64623;44.738;37.804;2023-11-19T05:00:24;5.53;;;3.97;;
75295;SDS011;64623;44.738;37.804;2023-11-19T05:01:27;6.15;;;4.28;;
75295;SDS011;64623;44.738;37.804;2023-11-19T05:02:30;10.20;;;4.35;;
75295;SDS011;64623;44.738;37.804;2023-11-19T05:03:33;7.13;;;4.07;;
75295;SDS011;64623;44.738;37.804;2023-11-19T05:04:36;5.95;;;4.30;;
75295;SDS011;64623;44.738;37.804;2023-11-19T05:05:42;6.25;;;3.80;;
75295;SDS011;64623;44.738;37.804;2023-11-19T05:06:45;6.85;;;3.83;;
75295;SDS011;64623;44.738;37.804;2023-11-19T05:07:48;7.25;;;4.35;;
75295;SDS011;64623;44.738;37.804;2023-11-19T05:08:50;5.93;;;4.03;;
75295;SDS011;64623;44.738;37.804;2023-11-19T05:09:53;5.72;;;3.70;;
75295;SDS011;64623;44.738;37.804;2023-11-19T05:10:56;5.85;;;4.35;;
75295;SDS011;64623;44.738;37.804;2023-11-19T05:11:59;5.97;;;3.95;;
75295;SDS011;64623;44.738;37.804;2023-11-19T05:13:04;6.57;;;4.18;;
75295;SDS011;64623;44.738;37.804;2023-11-19T05:14:07;5.68;;;3.90;;
75295;SDS011;64623;44.738;37.804;2023-11-19T05:15:11;5.80;;;4.60;;
75295;SDS011;64623;44.738;37.804;2023-11-19T05:16:14;7.35;;;3.72;;
75295;SDS011;64623;44.738;37.804;2023-11-19T05:17:17;5.97;;;3.80;;
75295;SDS011;64623;44.738;37.804;2023-11-19T05:18:21;6.68;;;4.30;;
75295;SDS011;64623;44.738;37.804;2023-11-19T05:19:23;6.18;;;4.43;;
75295;SDS011;64623;44.738;37.804;2023-11-19T05:20:26;7.22;;;3.65;;
75295;SDS011;64623;44.738;37.804;2023-11-19T05:21:29;6.50;;;4.00;;
75295;SDS011;64623;44.738;37.804;2023-11-19T05:22:32;7.07;;;4.03;;
75295;SDS011;64623;44.738;37.804;2023-11-19T05:23:35;6.95;;;4.18;;
75295;SDS011;64623;44.738;37.804;2023-11-19T05:24:38;5.43;;;3.42;;
75295;SDS011;64623;44.738;37.804;2023-11-19T05:25:41;5.65;;;4.10;;
75295;SDS011;64623;44.738;37.804;2023-11-19T05:26:44;6.03;;;4.13;;
75295;SDS011;64623;44.738;37.804;2023-11-19T05:27:47;6.20;;;4.22;;
75295;SDS011;64623;44.738;37.804;2023-11-19T05:28:50;4.85;;;3.58;;
75295;SDS011;64623;44.738;37.804;2023-11-19T05:29:53;6.80;;;4.10;;
75295;SDS011;64623;44.738;37.804;2023-11-19T05:30:56;7.20;;;4.85;;
75295;SDS011;64623;44.738;37.804;2023-11-19T05:31:59;6.05;;;4.22;;
75295;SDS011;64623;44.738;37.804;2023-11-19T05:33:03;5.68;;;4.53;;
75295;SDS011;64623;44.738;37.804;2023-11-19T05:34:06;6.95;;;4.35;;
75295;SDS011;64623;44.738;37.804;2023-11-19T05:35:09;7.22;;;4.20;;
75295;SDS011;64623;44.738;37.804;2023-11-19T05:36:13;5.18;;;4.47;;
75295;SDS011;64623;44.738;37.804;2023-11-19T05:37:16;5.50;;;4.00;;
75295;SDS011;64623;44.738;37.804;2023-11-19T05:38:18;7.68;;;4.47;;
75295;SDS011;64623;44.738;37.804;2023-11-19T05:39:23;7.78;;;4.63;;
75295;SDS011;64623;44.738;37.804;2023-11-19T05:40:26;6.72;;;4.20;;
75295;SDS011;64623;44.738;37.804;2023-11-19T05:41:30;5.80;;;4.47;;
75295;SDS011;64623;44.738;37.804;2023-11-19T05:42:32;6.22;;;3.55;;
75295;SDS011;64623;44.738;37.804;2023-11-19T05:43:36;4.70;;;3.15;;
75295;SDS011;64623;44.738;37.804;2023-11-19T05:44:39;6.13;;;3.83;;
75295;SDS011;64623;44.738;37.804;2023-11-19T05:45:42;4.68;;;2.95;;
75295;SDS011;64623;44.738;37.804;2023-11-19T05:46:45;4.80;;;2.85;;
75295;SDS011;64623;44.738;37.804;2023-11-19T05:47:48;4.68;;;3.38;;
75295;SDS011;64623;44.738;37.804;2023-11-19T05:48:51;4.22;;;2.88;;
75295;SDS011;64623;44.738;37.804;2023-11-19T05:49:54;6.50;;;3.63;;
75295;SDS011;64623;44.738;37.804;2023-11-19T05:50:57;7.15;;;4.85;;
75295;SDS011;64623;44.738;37.804;2023-11-19T05:52:00;7.10;;;4.43;;
75295;SDS011;64623;44.738;37.804;2023-11-19T05:53:05;5.30;;;3.70;;
75295;SDS011;64623;44.738;37.804;2023-11-19T05:54:09;5.75;;;3.88;;
75295;SDS011;64623;44.738;37.804;2023-11-19T05:55:12;4.78;;;3.38;;
75295;SDS011;64623;44.738;37.804;2023-11-19T05:56:16;4.07;;;2.40;;
75295;SDS011;64623;44.738;37.804;2023-11-19T05:57:25;3.63;;;2.55;;
75295;SDS011;64623;44.738;37.804;2023-11-19T05:58:29;6.22;;;4.05;;
75295;SDS011;64623;44.738;37.804;2023-11-19T05:59:32;4.68;;;4.00;;
75295;SDS011;64623;44.738;37.804;2023-11-19T06:00:35;4.85;;;3.00;;
75295;SDS011;64623;44.738;37.804;2023-11-19T06:01:38;4.18;;;2.83;;
75295;SDS011;64623;44.738;37.804;2023-11-19T06:02:43;4.50;;;3.20;;
75295;SDS011;64623;44.738;37.804;2023-11-19T06:03:46;3.28;;;2.28;;
75295;SDS011;64623;44.738;37.804;2023-11-19T06:04:52;4.55;;;2.70;;
75295;SDS011;64623;44.738;37.804;2023-11-19T06:05:55;5.10;;;3.65;;
75295;SDS011;64623;44.738;37.804;2023-11-19T06:06:58;6.55;;;3.58;;
75295;SDS011;64623;44.738;37.804;2023-11-19T06:08:01;6.32;;;2.92;;
75295;SDS011;64623;44.738;37.804;2023-11-19T06:09:04;4.63;;;2.80;;
75295;SDS011;64623;44.738;37.804;2023-11-19T06:10:11;4.40;;;2.90;;
75295;SDS011;64623;44.738;37.804;2023-11-19T06:11:16;5.20;;;2.55;;
75295;SDS011;64623;44.738;37.804;2023-11-19T06:12:22;5.40;;;3.55;;
75295;SDS011;64623;44.738;37.804;2023-11-19T06:13:25;4.78;;;2.70;;
75295;SDS011;64623;44.738;37.804;2023-11-19T06:14:27;4.18;;;2.78;;
75295;SDS011;64623;44.738;37.804;2023-11-19T06:15:30;4.63;;;3.38;;
75295;SDS011;64623;44.738;37.804;2023-11-19T06:16:35;4.18;;;2.78;;
75295;SDS011;64623;44.738;37.804;2023-11-19T06:17:39;3.70;;;2.70;;
75295;SDS011;64623;44.738;37.804;2023-11-19T06:18:42;3.70;;;3.25;;